sensor_id;sensor_type;location;lat;lon;timestamp;temperature;humidity
2202;DHT22;1107;48.654;9.250;2024-03-02T00:01:31;6.20;99.90
2202;DHT22;1107;48.654;9.250;2024-03-02T00:03:58;6.20;99.90
2202;DHT22;1107;48.654;9.250;2024-03-02T00:06:25;6.20;99.90
2202;DHT22;1107;48.654;9.250;2024-03-02T00:08:57;6.20;99.90
2202;DHT22;1107;48.654;9.250;2024-03-02T00:11:24;6.20;99.90
2202;DHT22;1107;48.654;9.250;2024-03-02T00:13:53;6.20;99.90
2202;DHT22;1107;48.654;9.250;2024-03-02T00:16:20;6.20;99.90
2202;DHT22;1107;48.654;9.250;2024-03-02T00:18:49;6.20;99.90
2202;DHT22;1107;48.654;9.250;2024-03-02T00:21:16;6.30;99.90
2202;DHT22;1107;48.654;9.250;2024-03-02T00:23:45;6.30;99.90
2202;DHT22;1107;48.654;9.250;2024-03-02T00:26:12;6.30;99.90
2202;DHT22;1107;48.654;9.250;2024-03-02T00:28:40;6.30;99.90
2202;DHT22;1107;48.654;9.250;2024-03-02T00:31:10;6.30;99.90
2202;DHT22;1107;48.654;9.250;2024-03-02T00:33:41;6.30;99.90
2202;DHT22;1107;48.654;9.250;2024-03-02T00:36:10;6.30;99.90
2202;DHT22;1107;48.654;9.250;2024-03-02T00:38:44;6.30;99.90
2202;DHT22;1107;48.654;9.250;2024-03-02T00:41:16;6.30;99.90
2202;DHT22;1107;48.654;9.250;2024-03-02T00:43:47;6.30;99.90
2202;DHT22;1107;48.654;9.250;2024-03-02T00:46:17;6.30;99.90
2202;DHT22;1107;48.654;9.250;2024-03-02T00:48:50;6.30;99.90
2202;DHT22;1107;48.654;9.250;2024-03-02T00:51:19;6.30;99.90
2202;DHT22;1107;48.654;9.250;2024-03-02T00:53:46;6.30;99.90
2202;DHT22;1107;48.654;9.250;2024-03-02T00:56:14;6.30;99.90
2202;DHT22;1107;48.654;9.250;2024-03-02T00:58:41;6.30;99.90
2202;DHT22;1107;48.654;9.250;2024-03-02T01:01:08;6.30;99.90
2202;DHT22;1107;48.654;9.250;2024-03-02T01:03:35;6.20;99.90
2202;DHT22;1107;48.654;9.250;2024-03-02T01:06:03;6.20;99.90
2202;DHT22;1107;48.654;9.250;2024-03-02T01:08:33;6.20;99.90
2202;DHT22;1107;48.654;9.250;2024-03-02T01:11:01;6.20;99.90
2202;DHT22;1107;48.654;9.250;2024-03-02T01:13:28;6.10;99.90
2202;DHT22;1107;48.654;9.250;2024-03-02T01:15:55;6.10;99.90
2202;DHT22;1107;48.654;9.250;2024-03-02T01:18:22;5.90;99.90
2202;DHT22;1107;48.654;9.250;2024-03-02T01:20:49;6.10;99.90
2202;DHT22;1107;48.654;9.250;2024-03-02T01:23:17;6.00;99.90
2202;DHT22;1107;48.654;9.250;2024-03-02T01:25:46;6.00;99.90
2202;DHT22;1107;48.654;9.250;2024-03-02T01:28:13;6.00;99.90
2202;DHT22;1107;48.654;9.250;2024-03-02T01:30:40;6.00;99.90
2202;DHT22;1107;48.654;9.250;2024-03-02T01:33:07;6.00;99.90
2202;DHT22;1107;48.654;9.250;2024-03-02T01:35:34;6.00;99.90
2202;DHT22;1107;48.654;9.250;2024-03-02T01:38:02;6.00;99.90
2202;DHT22;1107;48.654;9.250;2024-03-02T01:40:29;5.90;99.90
2202;DHT22;1107;48.654;9.250;2024-03-02T01:42:57;5.90;99.90
2202;DHT22;1107;48.654;9.250;2024-03-02T01:45:24;5.90;99.90
2202;DHT22;1107;48.654;9.250;2024-03-02T01:47:52;5.90;99.90
2202;DHT22;1107;48.654;9.250;2024-03-02T01:50:25;5.80;99.90
2202;DHT22;1107;48.654;9.250;2024-03-02T01:52:53;5.80;99.90
2202;DHT22;1107;48.654;9.250;2024-03-02T01:55:20;5.80;99.90
2202;DHT22;1107;48.654;9.250;2024-03-02T01:57:47;5.70;99.90
2202;DHT22;1107;48.654;9.250;2024-03-02T02:00:16;5.70;99.90
2202;DHT22;1107;48.654;9.250;2024-03-02T02:02:43;5.70;99.90
2202;DHT22;1107;48.654;9.250;2024-03-02T02:05:11;5.70;99.90
2202;DHT22;1107;48.654;9.250;2024-03-02T02:07:38;5.70;99.90
2202;DHT22;1107;48.654;9.250;2024-03-02T02:10:05;5.60;99.90
2202;DHT22;1107;48.654;9.250;2024-03-02T02:12:33;5.60;99.90
2202;DHT22;1107;48.654;9.250;2024-03-02T02:15:00;5.60;99.90
2202;DHT22;1107;48.654;9.250;2024-03-02T02:17:28;5.50;99.90
2202;DHT22;1107;48.654;9.250;2024-03-02T02:19:56;5.50;99.90
2202;DHT22;1107;48.654;9.250;2024-03-02T02:22:24;5.50;99.90
2202;DHT22;1107;48.654;9.250;2024-03-02T02:24:51;5.50;99.90
2202;DHT22;1107;48.654;9.250;2024-03-02T02:27:18;5.60;99.90
2202;DHT22;1107;48.654;9.250;2024-03-02T02:29:45;5.50;99.90
2202;DHT22;1107;48.654;9.250;2024-03-02T02:32:12;5.50;99.90
2202;DHT22;1107;48.654;9.250;2024-03-02T02:34:39;5.50;99.90
2202;DHT22;1107;48.654;9.250;2024-03-02T02:37:06;5.40;99.90
2202;DHT22;1107;48.654;9.250;2024-03-02T02:39:34;5.40;99.90
2202;DHT22;1107;48.654;9.250;2024-03-02T02:42:01;5.30;99.90
2202;DHT22;1107;48.654;9.250;2024-03-02T02:44:28;5.30;99.90
2202;DHT22;1107;48.654;9.250;2024-03-02T02:46:55;5.30;99.90
2202;DHT22;1107;48.654;9.250;2024-03-02T02:49:22;5.30;99.90
2202;DHT22;1107;48.654;9.250;2024-03-02T02:51:49;5.20;99.90
2202;DHT22;1107;48.654;9.250;2024-03-02T02:54:16;5.20;99.90
2202;DHT22;1107;48.654;9.250;2024-03-02T02:56:44;5.20;99.90
2202;DHT22;1107;48.654;9.250;2024-03-02T02:59:11;5.30;99.90
2202;DHT22;1107;48.654;9.250;2024-03-02T03:01:38;5.40;99.90
2202;DHT22;1107;48.654;9.250;2024-03-02T03:04:05;5.50;99.90
2202;DHT22;1107;48.654;9.250;2024-03-02T03:06:32;5.50;99.90
2202;DHT22;1107;48.654;9.250;2024-03-02T03:08:59;5.60;99.90
2202;DHT22;1107;48.654;9.250;2024-03-02T03:11:26;5.60;99.90
2202;DHT22;1107;48.654;9.250;2024-03-02T03:13:55;5.60;99.90
2202;DHT22;1107;48.654;9.250;2024-03-02T03:16:22;5.60;99.90
2202;DHT22;1107;48.654;9.250;2024-03-02T03:18:49;5.50;99.90
2202;DHT22;1107;48.654;9.250;2024-03-02T03:21:17;5.50;99.90
2202;DHT22;1107;48.654;9.250;2024-03-02T03:23:44;5.40;99.90
2202;DHT22;1107;48.654;9.250;2024-03-02T03:26:11;5.40;99.90
2202;DHT22;1107;48.654;9.250;2024-03-02T03:28:38;5.30;99.90
2202;DHT22;1107;48.654;9.250;2024-03-02T03:31:06;5.20;99.90
2202;DHT22;1107;48.654;9.250;2024-03-02T03:33:33;5.20;99.90
2202;DHT22;1107;48.654;9.250;2024-03-02T03:36:01;5.10;99.90
2202;DHT22;1107;48.654;9.250;2024-03-02T03:38:29;5.10;99.90
2202;DHT22;1107;48.654;9.250;2024-03-02T03:40:56;5.10;99.90
2202;DHT22;1107;48.654;9.250;2024-03-02T03:43:23;5.10;99.90
2202;DHT22;1107;48.654;9.250;2024-03-02T03:45:50;5.10;99.90
2202;DHT22;1107;48.654;9.250;2024-03-02T03:48:18;5.10;99.90
2202;DHT22;1107;48.654;9.250;2024-03-02T03:50:45;5.10;99.90
2202;DHT22;1107;48.654;9.250;2024-03-02T03:53:12;5.10;99.90
2202;DHT22;1107;48.654;9.250;2024-03-02T03:55:40;5.10;99.90
2202;DHT22;1107;48.654;9.250;2024-03-02T03:58:07;5.00;99.90
2202;DHT22;1107;48.654;9.250;2024-03-02T04:00:34;5.00;99.90
2202;DHT22;1107;48.654;9.250;2024-03-02T04:03:01;5.00;99.90
2202;DHT22;1107;48.654;9.250;2024-03-02T04:05:30;5.00;99.90
2202;DHT22;1107;48.654;9.250;2024-03-02T04:07:56;5.00;99.90
2202;DHT22;1107;48.654;9.250;2024-03-02T04:10:23;5.00;99.90
2202;DHT22;1107;48.654;9.250;2024-03-02T04:12:51;5.00;99.90
2202;DHT22;1107;48.654;9.250;2024-03-02T04:15:18;5.00;99.90
2202;DHT22;1107;48.654;9.250;2024-03-02T04:17:45;5.00;99.90
2202;DHT22;1107;48.654;9.250;2024-03-02T04:20:12;4.90;99.90
2202;DHT22;1107;48.654;9.250;2024-03-02T04:22:41;4.90;99.90
2202;DHT22;1107;48.654;9.250;2024-03-02T04:25:08;4.90;99.90
2202;DHT22;1107;48.654;9.250;2024-03-02T04:27:35;4.90;99.90
2202;DHT22;1107;48.654;9.250;2024-03-02T04:30:03;4.80;99.90
2202;DHT22;1107;48.654;9.250;2024-03-02T04:32:31;4.80;99.90
2202;DHT22;1107;48.654;9.250;2024-03-02T04:34:58;4.80;99.90
2202;DHT22;1107;48.654;9.250;2024-03-02T04:37:25;4.80;99.90
2202;DHT22;1107;48.654;9.250;2024-03-02T04:39:53;4.70;99.90
2202;DHT22;1107;48.654;9.250;2024-03-02T04:42:20;4.70;99.90
2202;DHT22;1107;48.654;9.250;2024-03-02T04:44:48;4.70;99.90
2202;DHT22;1107;48.654;9.250;2024-03-02T04:47:15;4.70;99.90
2202;DHT22;1107;48.654;9.250;2024-03-02T04:49:42;4.70;99.90
2202;DHT22;1107;48.654;9.250;2024-03-02T04:52:09;4.70;99.90
2202;DHT22;1107;48.654;9.250;2024-03-02T04:54:36;4.70;99.90
2202;DHT22;1107;48.654;9.250;2024-03-02T04:57:24;4.70;99.90
2202;DHT22;1107;48.654;9.250;2024-03-02T04:59:51;4.70;99.90
2202;DHT22;1107;48.654;9.250;2024-03-02T05:02:18;4.70;99.90
2202;DHT22;1107;48.654;9.250;2024-03-02T05:04:45;4.60;99.90
2202;DHT22;1107;48.654;9.250;2024-03-02T05:07:13;4.60;99.90
2202;DHT22;1107;48.654;9.250;2024-03-02T05:09:40;4.60;99.90
2202;DHT22;1107;48.654;9.250;2024-03-02T05:12:08;4.60;99.90
2202;DHT22;1107;48.654;9.250;2024-03-02T05:14:53;4.60;99.90
2202;DHT22;1107;48.654;9.250;2024-03-02T05:17:20;4.60;99.90
2202;DHT22;1107;48.654;9.250;2024-03-02T05:19:47;4.50;99.90
2202;DHT22;1107;48.654;9.250;2024-03-02T05:22:14;4.40;99.90
2202;DHT22;1107;48.654;9.250;2024-03-02T05:24:40;4.40;99.90
2202;DHT22;1107;48.654;9.250;2024-03-02T05:27:07;4.30;99.90
2202;DHT22;1107;48.654;9.250;2024-03-02T05:29:34;4.30;99.90
2202;DHT22;1107;48.654;9.250;2024-03-02T05:32:03;4.30;99.90
2202;DHT22;1107;48.654;9.250;2024-03-02T05:34:30;4.30;99.90
2202;DHT22;1107;48.654;9.250;2024-03-02T05:36:58;4.30;99.90
2202;DHT22;1107;48.654;9.250;2024-03-02T05:39:26;4.30;99.90
2202;DHT22;1107;48.654;9.250;2024-03-02T05:41:54;4.30;99.90
2202;DHT22;1107;48.654;9.250;2024-03-02T05:44:21;4.30;99.90
2202;DHT22;1107;48.654;9.250;2024-03-02T05:46:48;4.30;99.90
2202;DHT22;1107;48.654;9.250;2024-03-02T05:49:16;4.30;99.90
2202;DHT22;1107;48.654;9.250;2024-03-02T05:51:43;4.30;99.90
2202;DHT22;1107;48.654;9.250;2024-03-02T05:54:10;4.40;99.90
2202;DHT22;1107;48.654;9.250;2024-03-02T05:56:37;4.40;99.90
2202;DHT22;1107;48.654;9.250;2024-03-02T05:59:04;4.40;99.90
2202;DHT22;1107;48.654;9.250;2024-03-02T06:01:38;4.40;99.90
2202;DHT22;1107;48.654;9.250;2024-03-02T06:04:05;4.40;99.90
2202;DHT22;1107;48.654;9.250;2024-03-02T06:06:33;4.40;99.90
2202;DHT22;1107;48.654;9.250;2024-03-02T06:09:01;4.50;99.90
2202;DHT22;1107;48.654;9.250;2024-03-02T06:11:31;4.40;99.90
2202;DHT22;1107;48.654;9.250;2024-03-02T06:13:58;4.50;99.90
2202;DHT22;1107;48.654;9.250;2024-03-02T06:16:25;4.50;99.90
2202;DHT22;1107;48.654;9.250;2024-03-02T06:18:52;4.60;99.90
2202;DHT22;1107;48.654;9.250;2024-03-02T06:21:19;4.60;99.90
2202;DHT22;1107;48.654;9.250;2024-03-02T06:23:47;4.60;99.90
2202;DHT22;1107;48.654;9.250;2024-03-02T06:26:14;4.70;99.90
2202;DHT22;1107;48.654;9.250;2024-03-02T06:28:42;4.70;99.90
2202;DHT22;1107;48.654;9.250;2024-03-02T06:31:09;4.80;99.90
2202;DHT22;1107;48.654;9.250;2024-03-02T06:33:36;4.80;99.90
2202;DHT22;1107;48.654;9.250;2024-03-02T06:36:04;4.90;99.90
2202;DHT22;1107;48.654;9.250;2024-03-02T06:38:34;4.90;99.90
2202;DHT22;1107;48.654;9.250;2024-03-02T06:41:02;5.00;99.90
2202;DHT22;1107;48.654;9.250;2024-03-02T06:43:29;5.00;99.90
2202;DHT22;1107;48.654;9.250;2024-03-02T06:45:56;5.00;99.90
2202;DHT22;1107;48.654;9.250;2024-03-02T06:48:23;5.10;99.90
2202;DHT22;1107;48.654;9.250;2024-03-02T06:50:50;5.10;99.90
2202;DHT22;1107;48.654;9.250;2024-03-02T06:53:17;5.10;99.90
2202;DHT22;1107;48.654;9.250;2024-03-02T06:55:45;5.10;99.90
2202;DHT22;1107;48.654;9.250;2024-03-02T06:58:14;5.10;99.90
2202;DHT22;1107;48.654;9.250;2024-03-02T07:00:41;5.20;99.90
2202;DHT22;1107;48.654;9.250;2024-03-02T07:03:10;5.30;99.90
2202;DHT22;1107;48.654;9.250;2024-03-02T07:05:37;5.40;99.90
2202;DHT22;1107;48.654;9.250;2024-03-02T07:08:05;5.50;99.90
2202;DHT22;1107;48.654;9.250;2024-03-02T07:10:32;5.60;99.90
2202;DHT22;1107;48.654;9.250;2024-03-02T07:12:59;5.80;99.90
2202;DHT22;1107;48.654;9.250;2024-03-02T07:15:27;6.00;99.90
2202;DHT22;1107;48.654;9.250;2024-03-02T07:18:15;6.10;99.90
2202;DHT22;1107;48.654;9.250;2024-03-02T07:20:43;6.40;99.90
2202;DHT22;1107;48.654;9.250;2024-03-02T07:23:09;6.80;99.90
2202;DHT22;1107;48.654;9.250;2024-03-02T07:25:36;7.10;99.90
2202;DHT22;1107;48.654;9.250;2024-03-02T07:28:05;7.40;99.90
2202;DHT22;1107;48.654;9.250;2024-03-02T07:30:34;7.80;99.90
2202;DHT22;1107;48.654;9.250;2024-03-02T07:33:01;8.30;99.90
2202;DHT22;1107;48.654;9.250;2024-03-02T07:35:28;8.70;99.90
2202;DHT22;1107;48.654;9.250;2024-03-02T07:37:57;8.90;99.90
2202;DHT22;1107;48.654;9.250;2024-03-02T07:40:24;9.10;99.90
2202;DHT22;1107;48.654;9.250;2024-03-02T07:42:51;9.30;99.90
2202;DHT22;1107;48.654;9.250;2024-03-02T07:45:18;9.10;99.90
2202;DHT22;1107;48.654;9.250;2024-03-02T07:47:46;8.90;99.90
2202;DHT22;1107;48.654;9.250;2024-03-02T07:50:15;8.70;99.90
2202;DHT22;1107;48.654;9.250;2024-03-02T07:52:42;8.40;99.90
2202;DHT22;1107;48.654;9.250;2024-03-02T07:55:09;8.00;99.90
2202;DHT22;1107;48.654;9.250;2024-03-02T07:57:36;7.80;99.90
2202;DHT22;1107;48.654;9.250;2024-03-02T08:00:03;7.70;99.90
2202;DHT22;1107;48.654;9.250;2024-03-02T08:02:31;7.50;99.90
2202;DHT22;1107;48.654;9.250;2024-03-02T08:04:59;7.40;99.90
2202;DHT22;1107;48.654;9.250;2024-03-02T08:07:26;7.50;99.90
2202;DHT22;1107;48.654;9.250;2024-03-02T08:09:53;7.60;99.90
2202;DHT22;1107;48.654;9.250;2024-03-02T08:12:20;7.70;99.90
2202;DHT22;1107;48.654;9.250;2024-03-02T08:14:49;7.60;99.90
2202;DHT22;1107;48.654;9.250;2024-03-02T08:17:16;7.90;99.90
2202;DHT22;1107;48.654;9.250;2024-03-02T08:19:43;8.30;99.90
2202;DHT22;1107;48.654;9.250;2024-03-02T08:22:12;8.50;99.90
2202;DHT22;1107;48.654;9.250;2024-03-02T08:24:39;8.70;99.90
2202;DHT22;1107;48.654;9.250;2024-03-02T08:27:06;9.30;99.90
2202;DHT22;1107;48.654;9.250;2024-03-02T08:29:33;10.00;99.90
2202;DHT22;1107;48.654;9.250;2024-03-02T08:32:00;11.10;99.90
2202;DHT22;1107;48.654;9.250;2024-03-02T08:34:27;11.90;99.90
2202;DHT22;1107;48.654;9.250;2024-03-02T08:36:53;12.70;99.90
2202;DHT22;1107;48.654;9.250;2024-03-02T08:39:22;12.70;99.90
2202;DHT22;1107;48.654;9.250;2024-03-02T08:41:49;12.20;99.90
2202;DHT22;1107;48.654;9.250;2024-03-02T08:44:17;12.30;99.90
2202;DHT22;1107;48.654;9.250;2024-03-02T08:46:44;13.10;99.90
2202;DHT22;1107;48.654;9.250;2024-03-02T08:49:11;13.90;99.90
2202;DHT22;1107;48.654;9.250;2024-03-02T08:51:38;14.20;99.90
2202;DHT22;1107;48.654;9.250;2024-03-02T08:54:05;14.90;99.90
2202;DHT22;1107;48.654;9.250;2024-03-02T08:56:33;14.80;99.90
2202;DHT22;1107;48.654;9.250;2024-03-02T08:59:00;14.70;99.90
2202;DHT22;1107;48.654;9.250;2024-03-02T09:01:27;15.00;99.90
2202;DHT22;1107;48.654;9.250;2024-03-02T09:03:54;15.50;99.90
2202;DHT22;1107;48.654;9.250;2024-03-02T09:06:21;16.30;99.90
2202;DHT22;1107;48.654;9.250;2024-03-02T09:08:48;16.70;99.90
2202;DHT22;1107;48.654;9.250;2024-03-02T09:11:17;16.60;99.90
2202;DHT22;1107;48.654;9.250;2024-03-02T09:13:45;16.50;99.90
2202;DHT22;1107;48.654;9.250;2024-03-02T09:16:12;16.70;99.90
2202;DHT22;1107;48.654;9.250;2024-03-02T09:18:39;16.70;99.90
2202;DHT22;1107;48.654;9.250;2024-03-02T09:21:06;17.30;99.90
2202;DHT22;1107;48.654;9.250;2024-03-02T09:23:33;17.00;99.90
2202;DHT22;1107;48.654;9.250;2024-03-02T09:26:00;17.20;99.90
2202;DHT22;1107;48.654;9.250;2024-03-02T09:28:28;17.60;99.90
2202;DHT22;1107;48.654;9.250;2024-03-02T09:30:57;17.70;99.90
2202;DHT22;1107;48.654;9.250;2024-03-02T09:33:23;17.80;99.90
2202;DHT22;1107;48.654;9.250;2024-03-02T09:35:50;18.30;99.90
2202;DHT22;1107;48.654;9.250;2024-03-02T09:38:17;18.30;99.00
2202;DHT22;1107;48.654;9.250;2024-03-02T09:40:45;18.10;99.70
2202;DHT22;1107;48.654;9.250;2024-03-02T09:43:12;18.80;99.90
2202;DHT22;1107;48.654;9.250;2024-03-02T09:45:40;19.40;99.20
2202;DHT22;1107;48.654;9.250;2024-03-02T09:48:09;19.40;97.30
2202;DHT22;1107;48.654;9.250;2024-03-02T09:50:36;19.60;96.30
2202;DHT22;1107;48.654;9.250;2024-03-02T09:53:03;19.30;95.50
2202;DHT22;1107;48.654;9.250;2024-03-02T09:55:30;18.80;95.60
2202;DHT22;1107;48.654;9.250;2024-03-02T09:57:57;19.10;96.70
2202;DHT22;1107;48.654;9.250;2024-03-02T10:00:24;19.80;98.10
2202;DHT22;1107;48.654;9.250;2024-03-02T10:02:51;20.20;95.90
2202;DHT22;1107;48.654;9.250;2024-03-02T10:05:25;20.90;95.50
2202;DHT22;1107;48.654;9.250;2024-03-02T10:07:59;21.70;95.30
2202;DHT22;1107;48.654;9.250;2024-03-02T10:10:35;22.10;92.80
2202;DHT22;1107;48.654;9.250;2024-03-02T10:13:06;22.60;92.10
2202;DHT22;1107;48.654;9.250;2024-03-02T10:15:33;22.80;90.90
2202;DHT22;1107;48.654;9.250;2024-03-02T10:18:00;22.20;87.60
2202;DHT22;1107;48.654;9.250;2024-03-02T10:20:28;22.80;88.70
2202;DHT22;1107;48.654;9.250;2024-03-02T10:22:56;22.90;86.60
2202;DHT22;1107;48.654;9.250;2024-03-02T10:25:35;23.10;86.10
2202;DHT22;1107;48.654;9.250;2024-03-02T10:28:03;22.60;84.30
2202;DHT22;1107;48.654;9.250;2024-03-02T10:30:31;22.90;84.40
2202;DHT22;1107;48.654;9.250;2024-03-02T10:32:58;23.20;86.00
2202;DHT22;1107;48.654;9.250;2024-03-02T10:35:28;23.30;84.20
2202;DHT22;1107;48.654;9.250;2024-03-02T10:37:58;23.20;82.60
2202;DHT22;1107;48.654;9.250;2024-03-02T10:40:26;23.30;82.90
2202;DHT22;1107;48.654;9.250;2024-03-02T10:42:53;23.50;82.80
2202;DHT22;1107;48.654;9.250;2024-03-02T10:45:20;23.90;81.80
2202;DHT22;1107;48.654;9.250;2024-03-02T10:47:49;24.40;82.30
2202;DHT22;1107;48.654;9.250;2024-03-02T10:50:17;24.80;80.20
2202;DHT22;1107;48.654;9.250;2024-03-02T10:52:45;25.10;78.50
2202;DHT22;1107;48.654;9.250;2024-03-02T10:55:12;25.30;78.20
2202;DHT22;1107;48.654;9.250;2024-03-02T10:57:52;25.40;76.50
2202;DHT22;1107;48.654;9.250;2024-03-02T11:00:20;25.50;77.30
2202;DHT22;1107;48.654;9.250;2024-03-02T11:02:52;25.80;77.70
2202;DHT22;1107;48.654;9.250;2024-03-02T11:05:28;25.70;76.20
2202;DHT22;1107;48.654;9.250;2024-03-02T11:08:01;26.10;75.90
2202;DHT22;1107;48.654;9.250;2024-03-02T11:10:34;26.00;75.90
2202;DHT22;1107;48.654;9.250;2024-03-02T11:13:05;26.20;76.10
2202;DHT22;1107;48.654;9.250;2024-03-02T11:15:35;26.30;73.10
2202;DHT22;1107;48.654;9.250;2024-03-02T11:18:04;26.00;73.50
2202;DHT22;1107;48.654;9.250;2024-03-02T11:20:36;26.60;73.40
2202;DHT22;1107;48.654;9.250;2024-03-02T11:23:09;26.90;73.70
2202;DHT22;1107;48.654;9.250;2024-03-02T11:25:36;27.10;71.40
2202;DHT22;1107;48.654;9.250;2024-03-02T11:28:05;27.40;69.80
2202;DHT22;1107;48.654;9.250;2024-03-02T11:30:50;27.30;69.00
2202;DHT22;1107;48.654;9.250;2024-03-02T11:33:24;27.40;69.60
2202;DHT22;1107;48.654;9.250;2024-03-02T11:35:53;27.60;69.80
2202;DHT22;1107;48.654;9.250;2024-03-02T11:38:21;28.00;67.40
2202;DHT22;1107;48.654;9.250;2024-03-02T11:40:48;28.30;67.00
2202;DHT22;1107;48.654;9.250;2024-03-02T11:43:15;28.30;65.80
2202;DHT22;1107;48.654;9.250;2024-03-02T11:45:43;27.70;64.20
2202;DHT22;1107;48.654;9.250;2024-03-02T11:48:12;28.10;65.60
2202;DHT22;1107;48.654;9.250;2024-03-02T11:50:41;28.40;64.60
2202;DHT22;1107;48.654;9.250;2024-03-02T11:53:10;28.20;63.20
2202;DHT22;1107;48.654;9.250;2024-03-02T11:55:40;28.00;64.40
2202;DHT22;1107;48.654;9.250;2024-03-02T11:58:09;27.60;65.00
2202;DHT22;1107;48.654;9.250;2024-03-02T12:00:36;26.70;65.00
2202;DHT22;1107;48.654;9.250;2024-03-02T12:03:05;25.70;65.50
2202;DHT22;1107;48.654;9.250;2024-03-02T12:05:35;25.70;67.10
2202;DHT22;1107;48.654;9.250;2024-03-02T12:08:03;25.50;67.30
2202;DHT22;1107;48.654;9.250;2024-03-02T12:10:31;25.70;67.20
2202;DHT22;1107;48.654;9.250;2024-03-02T12:13:00;26.00;65.30
2202;DHT22;1107;48.654;9.250;2024-03-02T12:15:29;25.90;65.20
2202;DHT22;1107;48.654;9.250;2024-03-02T12:17:56;25.50;65.30
2202;DHT22;1107;48.654;9.250;2024-03-02T12:20:25;25.60;67.20
2202;DHT22;1107;48.654;9.250;2024-03-02T12:22:52;26.00;66.80
2202;DHT22;1107;48.654;9.250;2024-03-02T12:25:19;26.80;65.40
2202;DHT22;1107;48.654;9.250;2024-03-02T12:27:47;27.40;65.20
2202;DHT22;1107;48.654;9.250;2024-03-02T12:30:16;27.50;63.60
2202;DHT22;1107;48.654;9.250;2024-03-02T12:32:44;27.80;63.20
2202;DHT22;1107;48.654;9.250;2024-03-02T12:35:11;27.50;62.40
2202;DHT22;1107;48.654;9.250;2024-03-02T12:37:43;27.20;60.70
2202;DHT22;1107;48.654;9.250;2024-03-02T12:40:11;27.50;61.60
2202;DHT22;1107;48.654;9.250;2024-03-02T12:42:38;27.70;61.20
2202;DHT22;1107;48.654;9.250;2024-03-02T12:45:06;27.50;62.00
2202;DHT22;1107;48.654;9.250;2024-03-02T12:47:35;27.50;63.20
2202;DHT22;1107;48.654;9.250;2024-03-02T12:50:03;27.20;60.70
2202;DHT22;1107;48.654;9.250;2024-03-02T12:52:31;27.20;59.90
2202;DHT22;1107;48.654;9.250;2024-03-02T12:54:59;27.80;59.30
2202;DHT22;1107;48.654;9.250;2024-03-02T12:57:29;28.30;59.20
2202;DHT22;1107;48.654;9.250;2024-03-02T12:59:59;28.80;59.00
2202;DHT22;1107;48.654;9.250;2024-03-02T13:02:28;29.30;59.00
2202;DHT22;1107;48.654;9.250;2024-03-02T13:04:58;29.70;58.30
2202;DHT22;1107;48.654;9.250;2024-03-02T13:07:25;29.70;57.10
2202;DHT22;1107;48.654;9.250;2024-03-02T13:09:53;30.10;57.40
2202;DHT22;1107;48.654;9.250;2024-03-02T13:12:22;29.80;56.50
2202;DHT22;1107;48.654;9.250;2024-03-02T13:14:49;28.70;56.40
2202;DHT22;1107;48.654;9.250;2024-03-02T13:17:17;29.00;56.70
2202;DHT22;1107;48.654;9.250;2024-03-02T13:19:52;29.30;56.10
2202;DHT22;1107;48.654;9.250;2024-03-02T13:22:21;29.80;55.90
2202;DHT22;1107;48.654;9.250;2024-03-02T13:24:48;30.10;56.20
2202;DHT22;1107;48.654;9.250;2024-03-02T13:27:15;30.00;55.60
2202;DHT22;1107;48.654;9.250;2024-03-02T13:29:45;30.30;56.10
2202;DHT22;1107;48.654;9.250;2024-03-02T13:32:12;30.40;55.60
2202;DHT22;1107;48.654;9.250;2024-03-02T13:34:39;29.70;55.00
2202;DHT22;1107;48.654;9.250;2024-03-02T13:37:06;29.50;55.20
2202;DHT22;1107;48.654;9.250;2024-03-02T13:39:35;29.60;54.90
2202;DHT22;1107;48.654;9.250;2024-03-02T13:42:07;29.90;55.00
2202;DHT22;1107;48.654;9.250;2024-03-02T13:44:35;29.60;54.50
2202;DHT22;1107;48.654;9.250;2024-03-02T13:47:02;29.30;54.60
2202;DHT22;1107;48.654;9.250;2024-03-02T13:49:29;29.30;54.90
2202;DHT22;1107;48.654;9.250;2024-03-02T13:52:02;29.40;55.00
2202;DHT22;1107;48.654;9.250;2024-03-02T13:54:38;29.70;56.10
2202;DHT22;1107;48.654;9.250;2024-03-02T13:57:05;29.90;55.90
2202;DHT22;1107;48.654;9.250;2024-03-02T13:59:32;29.50;54.80
2202;DHT22;1107;48.654;9.250;2024-03-02T14:01:59;29.00;54.90
2202;DHT22;1107;48.654;9.250;2024-03-02T14:04:26;28.40;55.10
2202;DHT22;1107;48.654;9.250;2024-03-02T14:06:53;28.30;55.00
2202;DHT22;1107;48.654;9.250;2024-03-02T14:09:22;28.30;55.30
2202;DHT22;1107;48.654;9.250;2024-03-02T14:11:51;27.60;55.30
2202;DHT22;1107;48.654;9.250;2024-03-02T14:14:18;27.00;56.50
2202;DHT22;1107;48.654;9.250;2024-03-02T14:16:45;25.90;57.60
2202;DHT22;1107;48.654;9.250;2024-03-02T14:19:12;25.00;58.10
2202;DHT22;1107;48.654;9.250;2024-03-02T14:21:39;24.80;58.20
2202;DHT22;1107;48.654;9.250;2024-03-02T14:24:06;24.60;58.60
2202;DHT22;1107;48.654;9.250;2024-03-02T14:26:34;24.50;58.60
2202;DHT22;1107;48.654;9.250;2024-03-02T14:29:03;24.60;59.00
2202;DHT22;1107;48.654;9.250;2024-03-02T14:31:30;24.70;58.70
2202;DHT22;1107;48.654;9.250;2024-03-02T14:33:58;25.00;58.30
2202;DHT22;1107;48.654;9.250;2024-03-02T14:36:25;25.10;58.60
2202;DHT22;1107;48.654;9.250;2024-03-02T14:38:53;24.90;57.70
2202;DHT22;1107;48.654;9.250;2024-03-02T14:41:20;24.40;58.20
2202;DHT22;1107;48.654;9.250;2024-03-02T14:43:47;24.00;58.80
2202;DHT22;1107;48.654;9.250;2024-03-02T14:46:16;23.50;58.70
2202;DHT22;1107;48.654;9.250;2024-03-02T14:48:44;23.30;59.20
2202;DHT22;1107;48.654;9.250;2024-03-02T14:51:12;22.90;59.60
2202;DHT22;1107;48.654;9.250;2024-03-02T14:53:39;22.50;59.70
2202;DHT22;1107;48.654;9.250;2024-03-02T14:56:06;22.70;59.90
2202;DHT22;1107;48.654;9.250;2024-03-02T14:58:33;22.50;60.60
2202;DHT22;1107;48.654;9.250;2024-03-02T15:01:01;22.60;61.50
2202;DHT22;1107;48.654;9.250;2024-03-02T15:03:29;23.00;60.00
2202;DHT22;1107;48.654;9.250;2024-03-02T15:05:56;23.20;60.50
2202;DHT22;1107;48.654;9.250;2024-03-02T15:08:24;22.90;59.50
2202;DHT22;1107;48.654;9.250;2024-03-02T15:10:51;22.80;60.10
2202;DHT22;1107;48.654;9.250;2024-03-02T15:13:18;22.30;58.60
2202;DHT22;1107;48.654;9.250;2024-03-02T15:15:45;22.20;58.90
2202;DHT22;1107;48.654;9.250;2024-03-02T15:18:11;20.90;58.50
2202;DHT22;1107;48.654;9.250;2024-03-02T15:20:40;19.90;59.90
2202;DHT22;1107;48.654;9.250;2024-03-02T15:23:07;18.90;61.00
2202;DHT22;1107;48.654;9.250;2024-03-02T15:25:34;18.20;61.60
2202;DHT22;1107;48.654;9.250;2024-03-02T15:28:01;17.80;63.70
2202;DHT22;1107;48.654;9.250;2024-03-02T15:30:28;17.20;64.40
2202;DHT22;1107;48.654;9.250;2024-03-02T15:32:55;16.70;65.40
2202;DHT22;1107;48.654;9.250;2024-03-02T15:35:23;16.40;66.80
2202;DHT22;1107;48.654;9.250;2024-03-02T15:37:51;16.20;68.20
2202;DHT22;1107;48.654;9.250;2024-03-02T15:40:18;16.00;69.90
2202;DHT22;1107;48.654;9.250;2024-03-02T15:42:45;15.90;69.90
2202;DHT22;1107;48.654;9.250;2024-03-02T15:45:12;15.80;71.10
2202;DHT22;1107;48.654;9.250;2024-03-02T15:47:39;15.70;72.00
2202;DHT22;1107;48.654;9.250;2024-03-02T15:50:06;15.60;72.20
2202;DHT22;1107;48.654;9.250;2024-03-02T15:52:35;15.40;72.20
2202;DHT22;1107;48.654;9.250;2024-03-02T15:55:04;15.20;73.40
2202;DHT22;1107;48.654;9.250;2024-03-02T15:57:31;15.00;74.60
2202;DHT22;1107;48.654;9.250;2024-03-02T15:59:58;14.80;76.30
2202;DHT22;1107;48.654;9.250;2024-03-02T16:02:25;14.60;77.40
2202;DHT22;1107;48.654;9.250;2024-03-02T16:04:52;14.50;78.30
2202;DHT22;1107;48.654;9.250;2024-03-02T16:07:19;14.30;79.00
2202;DHT22;1107;48.654;9.250;2024-03-02T16:09:46;14.20;79.00
2202;DHT22;1107;48.654;9.250;2024-03-02T16:12:14;14.10;79.70
2202;DHT22;1107;48.654;9.250;2024-03-02T16:14:42;14.00;80.90